Tiempo atmosférico en la estación meteorológica de Don Benito, Badajoz (273 m.)



Fecha
DESCASC
Temp. máxima en grados centígrados (hora)
DESCASC
Temp. mínima en grados centígrados (hora)
DESCASC
Temp. media en grados centígrados
DESCASC
Racha de viento máxima en m/sg (hora)
DESCASC
Velocidad máxima media en intervalos de 10 minutos(hora)
DESCASC
Precipitaciones diarias en mm
DESCASC
Precipitaciones de 00:00 a 06:00 en mm
DESCASC
Precipitaciones de 06:00 a 12:00 en mm
DESCASC
Precipitaciones de 12:00 a 18:00 en mm
DESCASC
Precipitaciones de 18:00 a 24:00 en mm
DESCASC
20-05-2018 24.2 (13:30) 15.5 (03:50) 19.9 10.83 (16:00) 5.83 (14:40) 0.4 0 0.4 0 0
19-05-2018 26.4 (16:00) 13 (06:40) 19.7 8.06 (18:50) 4.44 (19:00) 0 0 0 0 0
18-05-2018 25.1 (14:20) 14.9 (00:00) 20 11.94 (18:50) 5.56 (18:50) 7 0 0.6 0.2 6.2
17-05-2018 29.6 (19:20) 14.8 (00:00) 22.2 7.22 (15:10) 3.06 (18:00) 0 0 0 0 0
16-05-2018 29.4 (18:20) 12.9 (00:00) 21.1 7.5 (16:50) 3.33 (14:20) 0 0 0 0 0
15-05-2018 27.2 (19:40) 10.1 (00:00) 18.7 6.39 (12:50) 3.06 (11:00) 0 0 0 0 0
14-05-2018 25 (18:00) 9 (00:00) 17 9.72 (19:50) 5 (19:50) 0 0 0 0 0
13-05-2018 21.6 (16:40) 7.3 (00:00) 14.5 9.72 (17:10) 4.72 (17:40) 0 0 0 0 0
12-05-2018 21.1 (16:20) 12.6 (00:00) 16.9 11.67 (18:20) 6.11 (18:00) 0 0 0 0 0
11-05-2018 26.4 (17:30) 13.1 (07:10) 19.8 7.22 (18:40) 3.06 (02:00) 0 0 0 0 0
10-05-2018 26.7 (18:30) 11.1 (00:00) 18.9 7.78 (00:30) 3.61 (02:30) 0 0 0 0 0
09-05-2018 23.2 (17:00) 13.2 (00:00) 18.2 10.56 (21:20) 4.72 (18:30) 0 0 0 0 0
08-05-2018 27.6 (17:20) 15.3 (00:00) 21.5 9.72 (18:10) 4.17 (18:10) 3.8 0 0 0 3.8
07-05-2018 27.4 (15:40) 12.6 (00:00) 20 8.06 (18:30) 3.61 (18:30) 0 0 0 0 0
06-05-2018 27 (16:00) 12.9 (00:00) 19.9 9.44 (19:00) 4.17 (17:50) 3.6 0 0 0 3.6
05-05-2018 26.9 (17:50) 9 (00:00) 17.9 8.33 (18:50) 2.78 (18:50) 0 0 0 0 0
04-05-2018 22.4 (18:50) 9.4 (00:00) 15.9 7.5 (16:50) 3.33 (13:00) 0 0 0 0 0
03-05-2018 23.3 (15:30) 8.9 (00:00) 16.1 8.33 (19:30) 3.89 (19:10) 0 0 0 0 0
02-05-2018 19.9 (18:40) 6.7 (00:00) 13.3 7.5 (16:30) 3.61 (16:30) 0 0 0 0 0
01-05-2018 17.7 (19:30) 8 (07:20) 12.9 11.11 (13:40) 5 (13:40) 0.4 0 0 0.4 0
30-04-2018 16.3 (19:40) 6.7 (00:00) 11.5 13.33 (14:50) 4.44 (14:50) 0.6 0 0 0.6 0
29-04-2018 15.4 (19:10) 7.8 (00:00) 11.6 16.94 (17:00) 6.67 (14:20) 12.8 11 0 1.8 0
28-04-2018 17.4 (16:50) 8.7 (00:00) 13 10.56 (14:20) 5.28 (21:30) 2.6 0 0 0 2.6
27-04-2018 24.5 (17:20) 10.2 (00:00) 17.3 10 (18:00) 4.72 (01:50) 0 0 0 0 0
26-04-2018 29.3 (19:00) 14.3 (00:00) 21.8 8.61 (00:20) 3.89 (00:20) 0 0 0 0 0
25-04-2018 29.7 (17:00) 13.2 (00:00) 21.5 7.22 (23:10) 3.61 (23:30) 0 0 0 0 0
24-04-2018 25.9 (17:20) 17 (00:00) 21.4 6.67 (08:30) 3.33 (04:30) 0 0 0 0 0
23-04-2018 26.4 (17:50) 14.6 (00:00) 20.5 11.39 (02:50) 6.39 (02:50) 7 3 4 0 0
22-04-2018 24.4 (19:10) 13.8 (00:00) 19.1 11.11 (11:50) 5.56 (12:00) 4.2 4 0.2 0 0

Gráficas

Temp. máximas Temp. mínimas Temp. medias Precipitaciones Rachas de viento máximas Velocidades máximas media en intervalos de 10 minutos

Datos horarios

Fecha y hora oficial Temperatura (ºC) Velocidad del viento (km/h) Dirección del viento Racha (km/h) Dirección de racha Precipitación (mm) Presión (hPa) Tendencia (hPa) Humedad (%)
2018-05-21 23:00:00 18.9 5 Sudoeste 9 Sudoeste 0 980.6 1.6 56
2018-05-21 22:00:00 21 3 Oeste 15 Sudoeste 0 979.9 0.9 52
2018-05-21 21:00:00 22.8 9 Oeste 24 Sudoeste 0 979.4 0.4 42
2018-05-21 20:00:00 24.2 9 Oeste 25 Sudoeste 0 979 -0.1 34
2018-05-21 19:00:00 23.3 15 Sudoeste 35 Sur 0 979 0.1 39
2018-05-21 18:00:00 23.2 17 Sudoeste 37 Sur 0 979 -0.4 44
2018-05-21 17:00:00 21.7 20 Sudeste 42 Sudeste 0 979.1 -0.9 50
2018-05-21 16:00:00 24.4 7 Noroeste 25 Noroeste 0 978.9 -1.5 36
2018-05-21 15:00:00 23.7 7 Noroeste 23 Noroeste 0 979.4 -1.3 39
2018-05-21 14:00:00 23.3 6 Oeste 21 Oeste 0 980 -0.8 40
2018-05-21 13:00:00 22.1 5 Oeste 15 Oeste 0 980.4 -0.3 45
2018-05-21 12:00:00 20.4 4 Noroeste 12 Noroeste 0 980.7 0.2 55
2018-05-21 11:00:00 18.8 5 Nordeste 11 Nordeste 0 980.8 0.5 65
2018-05-21 10:00:00 17.8 3 Nordeste 8 Nordeste 0 980.7 0.7 69
2018-05-21 09:00:00 14.8 0 Calma 8 Sur 0 980.5 0.6 85
2018-05-21 08:00:00 13.2 3 Sur 6 Sudoeste 0 980.3 0.6 88
2018-05-21 07:00:00 13.2 0 Calma 9 Sudoeste 0 980 0.2 89
2018-05-21 06:00:00 13.6 3 Sudoeste 8 Oeste 0 979.9 -0.1 89
2018-05-21 05:00:00 13.7 0 Calma 8 Norte 0 979.7 -1 87
2018-05-21 04:00:00 14 3 Este 10 Sur 0 979.8 -1.1 83
2018-05-21 03:00:00 14.3 4 Sur 10 Sudeste 0 980 -1 82
2018-05-21 02:00:00 14.2 2 Sur 10 Sur 0 980.7 0 82
2018-05-21 01:00:00 15 0 Calma 4 Este 0 980.9 0.6 81
2018-05-21 00:00:00 15.5 2 Oeste 8 Oeste 0 981 1.1 77
2018-05-20 23:00:00 16.7 4 Sudoeste 8 Sudoeste 0 980.7 1 70
2018-05-20 22:00:00 17.7 4 Sudoeste 11 Sudoeste 0 980.3 0.1 69
2018-05-20 21:00:00 19.3 3 Sudoeste 11 Sudeste 0 979.9 -0.8 53
2018-05-20 20:00:00 19.1 6 Sudeste 10 Sudeste 0 979.7 -1.6 52
2018-05-20 19:00:00 18.5 5 Sudeste 13 Oeste 0 980.2 -1.9 62
2018-05-20 18:00:00 17.5 6 Oeste 24 Norte 0 980.7 -0.3 64
2018-05-20 17:00:00 17.2 9 Norte 35 Norte 0 981.3 -0.3 60
2018-05-20 16:00:00 18.2 14 Noroeste 39 Noroeste 0 982.1 -0.1 58
2018-05-20 15:00:00 21.2 20 Sudoeste 37 Sur 0 981 -1.5 51
2018-05-20 14:00:00 23.3 15 Sudeste 32 Sudeste 0 981.6 -1.1 44
2018-05-20 13:00:00 22.8 10 Sudeste 21 Sudeste 0 982.2 -0.4 48
2018-05-20 12:00:00 21.8 5 Nordeste 12 Este 0 982.5 0 58
2018-05-20 11:00:00 19.3 3 Este 7 Sudeste 0 982.7 0.1 68
2018-05-20 10:00:00 17.4 3 Sudeste 11 Sur 0 982.6 0.4 81
2018-05-20 09:00:00 16 6 Oeste 10 Oeste 0.4 982.5 0.4 88
2018-05-20 08:00:00 16.1 3 Oeste 11 Sur 0 982.6 0.5 80
2018-05-20 07:00:00 15.8 5 Sudoeste 12 Sudoeste 0 982.2 -0.3 81
2018-05-20 06:00:00 15.8 6 Sudoeste 11 Sur 0 982.1 -0.9 81
2018-05-20 05:00:00 15.7 6 Sudoeste 12 Sudoeste 0 982.1 -1.5 85
2018-05-20 04:00:00 15.5 6 Sudoeste 10 Sudoeste 0 982.5 -1.4 84
2018-05-20 03:00:00 15.9 3 Oeste 10 Sudoeste 0 983 -1.1 79
2018-05-20 02:00:00 16 6 Sudoeste 10 Sudoeste 0 983.6 -0.1 77
2018-05-20 01:00:00 17.1 4 Sudoeste 11 Noroeste 0 983.9 1 73
2018-05-20 00:00:00 17.8 3 Norte 10 Oeste 0 984.1 1.4 71
2018-05-19 23:00:00 18.5 6 Sudoeste 11 Sudoeste 0 983.7 1 60
2018-05-19 22:00:00 20.1 6 Sudoeste 15 Sur 0 982.9 0 56
2018-05-19 21:00:00 23.1 5 Sudoeste 19 Noroeste 0 982.7 0.3 40
2018-05-19 20:00:00 24.3 6 Sudoeste 23 Sudeste 0 982.7 0.1 44
2018-05-19 19:00:00 23 16 Sudeste 29 Sudeste 0 982.9 0.2 46
2018-05-19 18:00:00 25.2 9 Norte 26 Norte 0 982.4 -0.8 41
2018-05-19 17:00:00 23.9 9 Norte 19 Norte 0 982.6 -1.7 42
2018-05-19 16:00:00 26.4 7 Oeste 19 Noroeste 0 982.7 -2.1 33
2018-05-19 15:00:00 25 4 Oeste 18 Oeste 0 983.2 -1.7 37
2018-05-19 14:00:00 23.3 7 Norte 14 Norte 0 984.3 -0.7 42
2018-05-19 13:00:00 22.4 4 Norte 10 Noroeste 0 984.8 0 48
2018-05-19 12:00:00 20.3 3 Noroeste 11 Nordeste 0 984.9 0.3 53
2018-05-19 11:00:00 19.2 3 Norte 8 Sudeste 0 985 0.7 62
2018-05-19 10:00:00 17.2 4 Sudeste 7 Sudeste 0 984.8 1.1 78
2018-05-19 09:00:00 14.5 2 Nordeste 8 Este 0 984.6 0.9 86
2018-05-19 08:00:00 13.4 2 Norte 8 Sudeste 0 984.3 0.7 91
2018-05-19 07:00:00 13.1 3 Este 12 Este 0 983.7 0 90
2018-05-19 06:00:00 13.5 5 Este 12 Sudeste 0 983.7 -0.5 90
2018-05-19 05:00:00 13.8 3 Este 13 Nordeste 0 983.6 -0.9 90
2018-05-19 04:00:00 14.3 3 Nordeste 9 Nordeste 0 983.7 -0.7 90
2018-05-19 03:00:00 14.3 5 Este 11 Sudeste 0 984.2 0 91
2018-05-19 02:00:00 14.4 5 Sudeste 12 Sur 0 984.5 0.4 92
2018-05-19 01:00:00 14.6 5 Sur 15 Sudeste 0 984.4 1.1 91
2018-05-19 00:00:00 14.9 7 Sudeste 14 Sudeste 0 984.2 1.3 89
2018-05-18 23:00:00 15.5 6 Sudeste 15 Este 0 984.1 0.4 87
2018-05-18 22:00:00 15.3 3 Sudoeste 16 Sudeste 0.2 983.3 -0.5 90
2018-05-18 21:00:00 15.3 4 Noroeste 17 Noroeste 0.2 982.9 0.7 86
2018-05-18 20:00:00 14.9 9 Norte 27 Noroeste 2.6 983.7 2 87
2018-05-18 19:00:00 15 18 Noroeste 43 Noroeste 3.2 983.8 2.3 86
2018-05-18 18:00:00 19.9 6 Sur 24 Este 0.2 982.2 0 66
2018-05-18 17:00:00 20.9 16 Sudeste 39 Sudeste 0 981.7 -1.3 54
2018-05-18 16:00:00 24.1 6 Nordeste 19 Sudeste 0 981.5 -2 37
2018-05-18 15:00:00 24.7 6 Este 20 Este 0 982.2 -1.5 36
2018-05-18 14:00:00 24.1 6 Sudeste 22 Sudeste 0 983 -0.7 41
2018-05-18 13:00:00 23.2 5 Este 19 Este 0 983.5 0 43
2018-05-18 12:00:00 20.4 6 Este 18 Este 0 983.7 0.8 58
2018-05-18 11:00:00 19.9 6 Este 16 Sudeste 0 983.7 1.4 60
2018-05-18 10:00:00 18.2 4 Nordeste 11 Norte 0 983.5 2.4 72
2018-05-18 09:00:00 16.4 5 Norte 12 Norte 0 982.9 1.6 81
2018-05-18 08:00:00 16.2 6 Noroeste 24 Sudeste 0.2 982.3 1.4 80
2018-05-18 07:00:00 16 13 Sudeste 22 Sudeste 0.4 981.1 0.1 81
2018-05-18 06:00:00 16.8 6 Oeste 19 Sudeste 0 981.3 0.2 71
2018-05-18 05:00:00 17.6 5 Sur 13 Sudeste 0 980.9 -0.6 61
2018-05-18 04:00:00 17.4 7 Sudeste 15 Este 0 981 -0.4 62
2018-05-18 03:00:00 18.3 2 Este 25 Nordeste 0 981.1 0.5 57
2018-05-18 02:00:00 18.2 6 Nordeste 31 Nordeste 0 981.5 1.7 61
2018-05-18 01:00:00 19.3 17 Norte 39 Norte 0 981.4 2.1 51
2018-05-18 00:00:00 20.7 11 Noroeste 22 Noroeste 0 980.6 1.5 41
2018-05-17 23:00:00 22.9 2 Sur 6 Sur 0 979.8 0.8 37
2018-05-17 22:00:00 25.1 0 Calma 9 Este 0 979.3 0.1 30
2018-05-17 21:00:00 27.2 5 Este 13 Este 0 979.1 -0.2 19
2018-05-17 20:00:00 28.5 6 Este 21 Nordeste 0 979 -0.6 17
2018-05-17 19:00:00 29.3 8 Este 22 Sudeste 0 979.2 -0.9 15
2018-05-17 18:00:00 29 11 Este 24 Este 0 979.3 -1.2 15
2018-05-17 17:00:00 28.4 8 Nordeste 21 Norte 0 979.6 -1.4 19
2018-05-17 16:00:00 28.1 10 Este 26 Sudeste 0 980.1 -1.3 20
2018-05-17 15:00:00 27.8 6 Este 22 Este 0 980.5 -1 20
2018-05-17 14:00:00 26.5 8 Este 21 Sudeste 0 981 -0.5 21
2018-05-17 13:00:00 25 8 Este 25 Nordeste 0 981.4 -0.2 26
2018-05-17 12:00:00 24 7 Este 24 Nordeste 0 981.5 -0.2 32
2018-05-17 11:00:00 21.4 10 Nordeste 24 Nordeste 0 981.5 0.5 36
2018-05-17 10:00:00 18.3 8 Este 22 Este 0 981.6 1.1 45
2018-05-17 09:00:00 17.2 7 Este 18 Este 0 981.7 1.4 49
2018-05-17 08:00:00 15.9 7 Este 18 Este 0 981 0.9 50
2018-05-17 07:00:00 15.8 5 Este 16 Este 0 980.5 0.6 50
2018-05-17 06:00:00 16.7 7 Sudeste 19 Este 0 980.3 0.7 47
2018-05-17 05:00:00 16.7 6 Este 14 Este 0 980.1 0.5 48
2018-05-17 04:00:00 16.7 0 Calma 8 Sudeste 0 979.9 0.1 55
2018-05-17 03:00:00 18.4 6 Nordeste 10 Nordeste 0 979.6 0 49
2018-05-17 02:00:00 18 3 Sudeste 9 Sudeste 0 979.6 0.4 52
2018-05-17 01:00:00 20 4 Sudoeste 14 Nordeste 0 979.8 1 44
2018-05-17 00:00:00 21.4 5 Nordeste 13 Nordeste 0 979.6 1 41
2018-05-16 23:00:00 22.5 3 Nordeste 11 Norte 0 979.2 0.7 37
2018-05-16 22:00:00 24.1 0 Calma 8 Nordeste 0 978.8 0.1 30
2018-05-16 21:00:00 26.2 4 Este 15 Este 0 978.6 -0.2 24
2018-05-16 20:00:00 27.6 6 Nordeste 20 Este 0 978.5 -0.7 22
2018-05-16 19:00:00 28.6 5 Este 20 Sudeste 0 978.7 -1.2 20
2018-05-16 18:00:00 28.9 6 Este 26 Nordeste 0 978.8 -1.7 21
2018-05-16 17:00:00 28.8 11 Nordeste 27 Nordeste 0 979.2 -1.9 20
2018-05-16 16:00:00 28.4 8 Nordeste 24 Este 0 979.9 -1.7 22
2018-05-16 15:00:00 27.9 8 Nordeste 24 Norte 0 980.5 -1.3 21
2018-05-16 14:00:00 27.6 8 Nordeste 23 Este 0 981.1 -0.8 26
2018-05-16 13:00:00 26.3 10 Este 22 Este 0 981.6 -0.5 28
2018-05-16 12:00:00 24.6 8 Nordeste 23 Nordeste 0 981.8 -0.3 33
2018-05-16 11:00:00 22.6 6 Nordeste 15 Este 0 981.9 -0.1 36
2018-05-16 10:00:00 20.1 5 Nordeste 12 Nordeste 0 982.1 0.4 44
2018-05-16 09:00:00 17.2 2 Nordeste 7 Sudeste 0 982.1 0.3 52
2018-05-16 08:00:00 12.9 5 Sur 8 Sur 0 982 0.1 63
2018-05-16 07:00:00 13.2 2 Norte 5 Norte 0 981.7 -0.5 63
2018-05-16 06:00:00 13 2 Este 8 Sudeste 0 981.8 -0.6 60
2018-05-16 05:00:00 13.7 3 Sudeste 6 Sudeste 0 981.9 -0.8 57
2018-05-16 04:00:00 14 3 Sudeste 9 Sudeste 0 982.2 -0.6 55
2018-05-16 03:00:00 15 3 Sudeste 7 Sur 0 982.4 -0.5 52
2018-05-16 02:00:00 16.4 2 Sur 6 Sudoeste 0 982.7 0 59
2018-05-16 01:00:00 18.3 0 Calma 8 Noroeste 0 982.8 0.6 50
2018-05-16 00:00:00 20.3 4 Noroeste 12 Norte 0 982.9 0.9 32
2018-05-15 23:00:00 21.7 6 Norte 13 Norte 0 982.7 0.9 28
2018-05-15 22:00:00 22.9 5 Norte 12 Norte 0 982.2 0 25
2018-05-15 21:00:00 24.6 7 Norte 15 Noroeste 0 982 -0.6 22
2018-05-15 20:00:00 25.8 8 Norte 18 Norte 0 981.8 -1.3 22
2018-05-15 19:00:00 26.2 8 Noroeste 17 Norte 0 982.2 -1.7 21
2018-05-15 18:00:00 26.6 5 Sudoeste 16 Norte 0 982.6 -2 21
2018-05-15 17:00:00 26.2 6 Este 19 Nordeste 0 983.1 -2.2 20
2018-05-15 16:00:00 25.4 6 Noroeste 18 Nordeste 0 983.9 -2.1 20
2018-05-15 15:00:00 24.7 8 Nordeste 21 Norte 0 984.6 -1.6 21
2018-05-15 14:00:00 24.2 5 Nordeste 18 Sudeste 0 985.3 -1.2 22
2018-05-15 13:00:00 23.4 6 Este 23 Sudeste 0 986 -0.7 24
2018-05-15 12:00:00 21.8 9 Nordeste 21 Nordeste 0 986.2 -0.4 26
2018-05-15 11:00:00 20 11 Sudeste 22 Sudeste 0 986.5 0.2 31
2018-05-15 10:00:00 17.8 6 Nordeste 17 Nordeste 0 986.7 0.7 41
2018-05-15 09:00:00 14.4 3 Nordeste 8 Este 0 986.6 1 54
2018-05-15 08:00:00 10.3 6 Sudeste 9 Sudeste 0 986.3 0.8 69
2018-05-15 07:00:00 11 2 Sur 9 Nordeste 0 986 0.5 67
2018-05-15 06:00:00 12 5 Nordeste 9 Noroeste 0 985.6 0 66
2018-05-15 05:00:00 12.5 3 Este 6 Este 0 985.5 -0.3 63
2018-05-15 04:00:00 13.6 3 Este 7 Nordeste 0 985.5 -0.4 61
2018-05-15 03:00:00 14.2 4 Este 10 Sudeste 0 985.6 -0.2 52
2018-05-15 02:00:00 14.5 0 Calma 12 Sur 0 985.8 0.4 64
2018-05-15 01:00:00 16.4 0 Calma 9 Nordeste 0 985.9 1.1 54
2018-05-15 00:00:00 17.5 3 Nordeste 8 Norte 0 985.8 1.4 53
2018-05-14 23:00:00 18.9 4 Nordeste 10 Noroeste 0 985.4 1.1 45
2018-05-14 22:00:00 20.7 4 Nordeste 17 Nordeste 0 984.8 0.3 35
2018-05-14 21:00:00 22.5 6 Nordeste 24 Norte 0 984.4 -0.1 30
2018-05-14 20:00:00 23.6 14 Norte 35 Norte 0 984.3 -0.6 29
2018-05-14 19:00:00 23.3 7 Norte 25 Norte 0 984.5 -0.9 31
2018-05-14 18:00:00 25 8 Norte 23 Noroeste 0 984.5 -1.4 29
2018-05-14 17:00:00 23.4 12 Noroeste 33 Noroeste 0 984.9 -1.6 31
2018-05-14 16:00:00 23.3 13 Norte 28 Norte 0 985.4 -1.8 32
2018-05-14 15:00:00 23.3 11 Norte 31 Noroeste 0 985.9 -1.7 34
2018-05-14 14:00:00 21.8 5 Noroeste 22 Noroeste 0 986.5 -1.4 37
2018-05-14 13:00:00 20.3 7 Noroeste 22 Noroeste 0 987.2 -1.1 39
2018-05-14 12:00:00 18.3 10 Norte 23 Noroeste 0 987.6 -0.9 42
2018-05-14 11:00:00 16.6 8 Noroeste 18 Noroeste 0 987.9 -0.7 47
2018-05-14 10:00:00 14.6 6 Oeste 13 Noroeste 0 988.3 -0.2 56
2018-05-14 09:00:00 12.2 4 Sudoeste 10 Sudoeste 0 988.5 0.4 66
2018-05-14 08:00:00 9 4 Sudoeste 10 Sudoeste 0 988.6 0.3 77
2018-05-14 07:00:00 9.4 4 Oeste 10 Sudoeste 0 988.5 0 74
2018-05-14 06:00:00 10.1 4 Oeste 9 Sudoeste 0 988.1 -0.9 70
2018-05-14 05:00:00 10.8 5 Oeste 10 Oeste 0 988.3 -0.9 67
2018-05-14 04:00:00 11.4 4 Oeste 14 Oeste 0 988.5 -0.7 63
2018-05-14 03:00:00 12 5 Oeste 9 Oeste 0 989 -0.3 60
2018-05-14 02:00:00 13 5 Noroeste 12 Noroeste 0 989.2 -0.1 54
2018-05-14 01:00:00 14.1 4 Sudoeste 14 Norte 0 989.2 0.5 48
2018-05-11 20:00:00 25.3 10 Oeste 24 Noroeste 0 983.6 -0.9 35
2018-05-11 19:00:00 26 10 Oeste 26 Sudoeste 0 983.8 -1.3 33
2018-05-11 18:00:00 25.2 4 Oeste 23 Noroeste 0 983.9 -1.7 37
2018-05-11 17:00:00 25.4 9 Oeste 24 Norte 0 984.5 -1.1 38
2018-05-11 16:00:00 24.5 8 Oeste 23 Noroeste 0 985.1 -0.7 39
2018-05-11 15:00:00 23.6 8 Oeste 19 Noroeste 0 985.6 -0.7 44
2018-05-11 14:00:00 24 5 Sudoeste 19 Noroeste 0 985.6 -1 44
2018-05-11 13:00:00 22.8 8 Noroeste 19 Sudoeste 0 985.8 -0.5 49
2018-05-11 12:00:00 21 5 Norte 10 Noroeste 0 986.3 0.4 55
2018-05-11 11:00:00 18.6 3 Noroeste 9 Noroeste 0 986.6 0.9 61
2018-05-11 10:00:00 16.6 4 Noroeste 9 Oeste 0 986.3 1.7 71
2018-05-11 09:00:00 14.5 3 Sur 9 Sudeste 0 985.9 1.7 78
2018-05-11 08:00:00 13.4 4 Sudoeste 7 Oeste 0 985.7 1.5 82
2018-05-11 07:00:00 13.2 2 Oeste 5 Sur 0 984.6 0.5 81
2018-05-11 06:00:00 13.5 4 Sudoeste 9 Sudoeste 0 984.2 0.3 78
2018-05-11 05:00:00 14.1 4 Sudoeste 13 Sudoeste 0 984.2 0.2 76
2018-05-11 04:00:00 15.3 5 Sudoeste 18 Sudoeste 0 984.1 0.1 71
2018-05-11 03:00:00 16.7 9 Sudoeste 18 Sudoeste 0 983.9 0 64
2018-05-11 02:00:00 17.4 11 Sudoeste 20 Sudoeste 0 984 0.5 63
2018-05-11 01:00:00 17.7 8 Sur 15 Sur 0 984 1.3 67
2018-05-11 00:00:00 17.7 7 Sur 15 Sur 0 983.9 1.8 67
2018-05-10 23:00:00 20.3 0 Calma 4 Noroeste 0 983.5 1.6 62
2018-05-10 22:00:00 22 0 Calma 5 Noroeste 0 982.7 0.6 54
2018-05-10 21:00:00 23.4 3 Noroeste 12 Norte 0 982.1 0.1 45
2018-05-10 20:00:00 25.3 4 Oeste 15 Oeste 0 981.9 -0.5 40
2018-05-10 19:00:00 25.7 5 Sudoeste 12 Sudoeste 0 982.1 -0.8 35
2018-05-10 18:00:00 25.4 3 Sudeste 14 Sur 0 982 -1.1 40
2018-05-10 17:00:00 24.7 6 Sur 16 Sudeste 0 982.4 -1.1 42
2018-05-10 16:00:00 24.8 4 Sur 14 Sur 0 982.9 -0.7 39
2018-05-10 15:00:00 23.7 6 Sur 18 Sudeste 0 983.1 -0.6 40
2018-05-10 14:00:00 21.7 7 Nordeste 17 Nordeste 0 983.5 -0.2 48
2018-05-10 13:00:00 20.5 5 Este 17 Sur 0 983.6 0 50
2018-05-10 12:00:00 18.4 4 Nordeste 12 Nordeste 0 983.7 0.6 57
2018-05-10 11:00:00 16.8 4 Este 8 Oeste 0 983.7 1 61
2018-05-10 10:00:00 14.1 5 Oeste 13 Sudoeste 0 983.6 1.4 73
2018-05-10 09:00:00 12.3 4 Oeste 10 Sudoeste 0 983.1 1.3 81
2018-05-10 08:00:00 11.2 6 Sudoeste 14 Sudoeste 0 982.7 0.9 86
2018-05-10 07:00:00 11.3 6 Sudoeste 15 Sudoeste 0 982.2 0.6 84
2018-05-10 06:00:00 11.8 7 Sudoeste 19 Sudoeste 0 981.8 0.1 81
2018-05-10 05:00:00 12.2 9 Oeste 22 Sudoeste 0 981.8 -0.1 79
2018-05-10 04:00:00 12.6 8 Sudoeste 23 Sudoeste 0 981.6 -0.3 78
2018-05-10 03:00:00 13.3 8 Oeste 26 Oeste 0 981.7 -0.1 76
2018-05-10 02:00:00 14.1 8 Sudoeste 26 Oeste 0 981.9 0 75
2018-05-10 01:00:00 14.7 11 Oeste 28 Oeste 0 981.9 0.9 73
2018-05-10 00:00:00 15.5 9 Oeste 19 Oeste 0 981.8 1.6 71
2018-05-09 23:00:00 16.1 12 Oeste 33 Oeste 0 981.9 2.1 71
2018-05-09 22:00:00 17.5 10 Oeste 38 Oeste 0 981 1.2 72
2018-05-09 21:00:00 19.1 9 Oeste 35 Oeste 0 980.2 0.3 67
2018-05-09 20:00:00 21 13 Oeste 33 Oeste 0 979.8 -0.1 58
2018-05-09 19:00:00 21.7 14 Oeste 35 Oeste 0 979.8 -0.7 58
2018-05-09 18:00:00 22.4 12 Oeste 32 Oeste 0 979.9 -1 58
2018-05-09 17:00:00 22.8 14 Oeste 31 Oeste 0 979.9 -1.5 55
2018-05-09 16:00:00 21.7 12 Oeste 31 Oeste 0 980.5 -1.2 62
2018-05-09 15:00:00 20.4 14 Oeste 30 Oeste 0 980.9 -0.8 68
2018-05-09 14:00:00 19.2 14 Oeste 31 Sudoeste 0 981.4 -0.2 71
2018-05-09 13:00:00 17.4 14 Oeste 29 Oeste 0 981.7 0.3 76
2018-05-09 12:00:00 15.9 14 Sudoeste 26 Sudoeste 0 981.7 0.9 81
2018-05-09 11:00:00 14.7 12 Sudoeste 24 Sudoeste 0 981.6 1.4 87
2018-05-09 10:00:00 14.2 9 Oeste 22 Oeste 0 981.4 1.7 88
2018-05-09 09:00:00 14.5 8 Oeste 17 Sudoeste 0 980.8 1 89
2018-05-09 08:00:00 13.2 9 Sudoeste 18 Sudoeste 0 980.2 0.4 91
2018-05-09 07:00:00 13.7 8 Sudoeste 22 Sudoeste 0 979.7 0 90
2018-05-09 06:00:00 14.9 5 Oeste 11 Oeste 0 979.8 -0.1 89
2018-05-09 05:00:00 15.5 2 Oeste 9 Noroeste 0 979.8 -1.3 88
2018-05-09 04:00:00 16.2 4 Noroeste 14 Noroeste 0 979.7 -1 82
2018-05-09 03:00:00 16.8 6 Sudoeste 15 Sudeste 0 979.9 -0.8 76
2018-05-09 02:00:00 17.6 6 Sur 23 Este 0 981.1 0.3 69
2018-05-09 01:00:00 17.4 6 Sudoeste 15 Sudoeste 0 980.7 1.6 82
2018-05-09 00:00:00 18 7 Sudoeste 21 Sudoeste 0 980.7 1.7 73
2018-05-08 23:00:00 19.3 14 Sudoeste 31 Sudoeste 0 980.8 1.9 68
2018-05-08 22:00:00 20.2 6 Sudoeste 15 Sudoeste 0 979.1 0.3 81
2018-05-08 21:00:00 20.6 8 Oeste 24 Oeste 0 979 0.4 75
2018-05-08 20:00:00 20.7 4 Oeste 22 Oeste 0 978.9 -0.3 76
2018-05-08 19:00:00 21.2 5 Oeste 35 Noroeste 3.8 978.8 -0.7 78
2018-05-08 18:00:00 25.4 10 Oeste 27 Oeste 0 978.6 -1.5 43
2018-05-08 17:00:00 26.6 10 Oeste 34 Noroeste 0 979.2 -1.4 41
2018-05-08 16:00:00 26.6 11 Oeste 28 Oeste 0 979.5 -1.7 41
2018-05-08 15:00:00 26.1 10 Oeste 25 Oeste 0 980.1 -1.4 46
2018-05-08 14:00:00 25.6 9 Oeste 19 Oeste 0 980.6 -1 45
2018-05-08 13:00:00 24.6 8 Oeste 19 Oeste 0 981.2 -0.4 49
2018-05-08 12:00:00 23 8 Oeste 21 Sudoeste 0 981.5 0.1 53
2018-05-08 11:00:00 21.2 7 Oeste 16 Oeste 0 981.6 0.3 66
2018-05-08 10:00:00 19 9 Oeste 18 Sudoeste 0 981.6 0.7 75
2018-05-08 09:00:00 16.7 7 Sudoeste 16 Sudoeste 0 981.4 0.4 87
2018-05-08 08:00:00 15.5 5 Oeste 15 Sudoeste 0 981.3 0.4 89
2018-05-08 07:00:00 15.6 5 Sudoeste 14 Sudoeste 0 980.9 -0.4 87
2018-05-08 06:00:00 16 6 Oeste 14 Oeste 0 981 -0.5 85
2018-05-08 05:00:00 15.7 7 Sudoeste 14 Sur 0 980.9 -1.1 85
2018-05-08 04:00:00 16.2 6 Sudoeste 17 Sudoeste 0 981.3 -0.9 84
2018-05-08 03:00:00 16.7 9 Sudoeste 18 Sudoeste 0 981.5 -0.8 82
2018-05-08 02:00:00 17.1 8 Sudoeste 16 Sudoeste 0 982 0 78
2018-05-08 01:00:00 17.8 7 Sudoeste 20 Sudoeste 0 982.2 0.7 72
2018-05-08 00:00:00 18.9 8 Sudoeste 19 Sudoeste 0 982.3 1.1 64
2018-05-07 23:00:00 19.9 8 Sudoeste 15 Sudoeste 0 982 1.2 58
2018-05-07 22:00:00 21.5 8 Sudoeste 20 Sur 0 981.5 0.7 55
2018-05-07 21:00:00 23.8 5 Sudoeste 9 Sur 0 981.2 0.2 40
2018-05-07 20:00:00 25.5 3 Norte 16 Norte 0 980.8 -0.4 30
2018-05-07 19:00:00 25 6 Norte 29 Norte 0 980.8 -0.5 33
2018-05-07 18:00:00 25.2 9 Nordeste 26 Nordeste 0 981 -1.1 35
2018-05-07 17:00:00 26.1 7 Nordeste 21 Nordeste 0 981.2 -1.4 37
2018-05-07 16:00:00 26.4 8 Norte 20 Norte 0 981.3 -2 28
2018-05-07 15:00:00 26.1 6 Nordeste 15 Nordeste 0 982.1 -1.6 31
2018-05-07 14:00:00 25.2 6 Nordeste 15 Nordeste 0 982.6 -1 38
2018-05-07 13:00:00 23.5 4 Norte 12 Nordeste 0 983.3 -0.2 46
2018-05-07 12:00:00 22.2 5 Este 12 Nordeste 0 983.7 0.3 54
2018-05-07 11:00:00 19.6 5 Nordeste 12 Norte 0 983.6 0.4 63
2018-05-07 10:00:00 18.7 2 Sudeste 9 Sudeste 0 983.5 0.9 67
2018-05-07 09:00:00 14.9 2 Nordeste 5 Norte 0 983.4 1 80
2018-05-07 08:00:00 12.6 0 Calma 9 Sudeste 0 983.2 0.9 87
2018-05-07 07:00:00 13 3 Este 7 Sudeste 0 982.6 0.2 87
2018-05-07 06:00:00 14 0 Calma 10 Sudeste 0 982.4 -0.1 85
2018-05-07 05:00:00 14.9 4 Este 9 Sudeste 0 982.3 -0.3 79
2018-05-07 04:00:00 14.7 6 Sudeste 17 Sudeste 0 982.4 -0.1 82
2018-05-07 03:00:00 15.1 6 Sudeste 17 Este 0 982.5 -0.1 80
2018-05-07 02:00:00 16.6 4 Nordeste 10 Nordeste 0 982.6 0 78
2018-05-07 01:00:00 16.7 0 Calma 11 Sudeste 0 982.5 0.8 75
2018-05-07 00:00:00 17.5 7 Sur 15 Sudeste 0 982.6 1.2 72
2018-05-06 23:00:00 19.2 10 Este 22 Sudeste 0 982.6 1.5 66
2018-05-06 22:00:00 19.8 2 Nordeste 10 Nordeste 0 981.7 0.7 74
2018-05-06 21:00:00 20.6 5 Nordeste 12 Nordeste 0 981.4 0.4 66
2018-05-06 20:00:00 20.7 7 Norte 16 Noroeste 0 981.1 -0.4 65
2018-05-06 19:00:00 20.3 13 Nordeste 34 Nordeste 3.6 981 -1.1 58
2018-05-06 18:00:00 24.6 13 Norte 31 Norte 0 981 -1.6 37
2018-05-06 17:00:00 26.4 8 Nordeste 26 Este 0 981.5 -1.8 32
2018-05-06 16:00:00 27 4 Este 21 Sudeste 0 982.1 -1.7 32
2018-05-06 15:00:00 25.2 8 Nordeste 19 Este 0 982.6 -1.4 37
2018-05-06 14:00:00 25 6 Este 24 Este 0 983.3 -1 42
2018-05-06 13:00:00 22.6 8 Nordeste 25 Este 0 983.8 -0.3 50
2018-05-06 12:00:00 22 9 Este 24 Este 0 984 0.2 48
2018-05-06 11:00:00 18.3 6 Este 15 Nordeste 0 984.3 0.9 66
2018-05-06 10:00:00 15.9 6 Nordeste 14 Nordeste 0 984.1 1.4 69
2018-05-06 09:00:00 15.4 5 Nordeste 13 Este 0 983.8 1.1 70
2018-05-06 08:00:00 13 5 Este 13 Nordeste 0 983.4 0.8 77
2018-05-06 07:00:00 13.3 5 Nordeste 12 Sudeste 0 982.7 0.1 73
2018-05-06 06:00:00 14.3 8 Sudeste 14 Este 0 982.7 -0.2 69
2018-05-06 05:00:00 14.5 2 Nordeste 5 Nordeste 0 982.6 -0.3 70
2018-05-06 04:00:00 15 2 Nordeste 9 Sudeste 0 982.6 -0.2 69
2018-05-06 03:00:00 15.1 6 Sur 11 Sudeste 0 982.9 0.3 62
2018-05-06 02:00:00 16 6 Sudeste 10 Sudeste 0 982.9 0.5 58
2018-05-06 01:00:00 16.9 3 Sur 10 Sudeste 0 982.8 0.9 56
2018-05-06 00:00:00 18.2 3 Sur 8 Sur 0 982.6 0.9 53
2018-05-05 23:00:00 20.4 3 Noroeste 9 Noroeste 0 982.4 0.8 45
2018-05-05 22:00:00 21.9 4 Noroeste 9 Noroeste 0 981.9 0.1 36
2018-05-05 21:00:00 24.4 3 Oeste 12 Oeste 0 981.7 -0.1 26
2018-05-05 20:00:00 25.8 6 Noroeste 14 Noroeste 0 981.6 -0.5 22
2018-05-05 19:00:00 25.7 9 Noroeste 30 Oeste 0 981.8 -0.7 23
2018-05-05 18:00:00 26.6 5 Oeste 18 Sudoeste 0 981.8 -1 21
2018-05-05 17:00:00 25.8 9 Noroeste 22 Noroeste 0 982.1 -1.1 22
2018-05-05 16:00:00 25.5 5 Oeste 22 Noroeste 0 982.5 -1.1 24
2018-05-05 15:00:00 24.9 4 Oeste 22 Oeste 0 982.8 -1.1 26
2018-05-05 14:00:00 23.6 5 Noroeste 16 Noroeste 0 983.2 -0.7 29
2018-05-05 13:00:00 22.7 4 Norte 11 Norte 0 983.6 -0.1 34
2018-05-05 12:00:00 20.2 4 Nordeste 10 Nordeste 0 983.9 0.3 47
2018-05-05 11:00:00 16.9 4 Noroeste 9 Noroeste 0 983.9 0.6 55
2018-05-05 10:00:00 15.6 4 Norte 7 Noroeste 0 983.7 0.9 64
2018-05-05 09:00:00 12.2 2 Sudeste 4 Sudeste 0 983.6 1 71
2018-05-05 08:00:00 9.1 4 Sudeste 9 Sudeste 0 983.3 0.8 82
2018-05-05 07:00:00 9.6 5 Sudoeste 9 Sudoeste 0 982.8 0.4 81
2018-05-05 06:00:00 10.6 0 Calma 7 Norte 0 982.6 -0.1 81
2018-05-05 05:00:00 11.1 0 Calma 10 Sur 0 982.5 -0.1 71
2018-05-05 04:00:00 11.6 6 Sudeste 12 Sur 0 982.4 0.1 69
2018-05-05 03:00:00 11.8 6 Sudeste 10 Sudeste 0 982.7 0.3 69
2018-05-05 02:00:00 12.8 2 Sur 8 Sur 0 982.6 0.7 66
2018-05-05 01:00:00 13.8 0 Calma 7 Sudoeste 0 982.3 0.8 67
2018-05-05 00:00:00 15.5 0 Calma 5 Norte 0 982.4 1.1 60
2018-05-04 23:00:00 17 2 Norte 7 Norte 0 981.9 1.1 54
2018-05-04 22:00:00 18.5 0 Calma 12 Sudeste 0 981.5 0.7 48
2018-05-04 21:00:00 20.4 5 Sur 15 Sudeste 0 981.3 0.7 33
2018-05-04 20:00:00 21.9 8 Sudeste 18 Este 0 980.8 0.1 29
2018-05-04 19:00:00 22.2 7 Este 23 Sudeste 0 980.8 -0.1 28
2018-05-04 18:00:00 21.8 8 Este 19 Este 0 980.6 -0.5 27
2018-05-04 17:00:00 21.7 6 Nordeste 27 Este 0 980.7 -0.6 31
2018-05-04 16:00:00 21.3 7 Nordeste 26 Nordeste 0 980.9 -0.8 29
2018-05-04 15:00:00 20.9 6 Nordeste 18 Nordeste 0 981.1 -0.8 31
2018-05-04 14:00:00 20.4 8 Este 25 Nordeste 0 981.3 -0.7 31
2018-05-04 13:00:00 18.5 12 Nordeste 24 Nordeste 0 981.7 -0.3 33
2018-05-04 12:00:00 17.9 8 Este 21 Este 0 981.9 0.2 39
2018-05-04 11:00:00 16.1 10 Nordeste 23 Este 0 982 0.6 41
2018-05-04 10:00:00 14.5 6 Nordeste 17 Nordeste 0 982 1.2 50
2018-05-04 09:00:00 11.3 5 Nordeste 11 Nordeste 0 981.7 1.1 60
2018-05-04 08:00:00 9.5 4 Nordeste 11 Nordeste 0 981.4 0.5 71
2018-05-04 07:00:00 10.7 4 Nordeste 13 Nordeste 0 980.8 -0.2 62
2018-05-04 06:00:00 11.6 7 Nordeste 13 Nordeste 0 980.6 -0.5 59
2018-05-04 05:00:00 12 4 Este 15 Este 0 980.9 -0.2 60
2018-05-04 04:00:00 13.1 4 Este 12 Este 0 981 0 54
2018-05-04 03:00:00 11.9 0 Calma 6 Sur 0 981.1 0 66
2018-05-04 02:00:00 12.7 2 Sur 6 Sur 0 981.1 0.1 66
2018-05-04 01:00:00 13.7 3 Sur 6 Sudoeste 0 981 0.6 60
2018-05-04 00:00:00 15.4 4 Noroeste 10 Noroeste 0 981.1 1 51
2018-05-03 23:00:00 16.7 5 Noroeste 18 Noroeste 0 981 0.9 47
2018-05-03 22:00:00 18.7 11 Noroeste 21 Noroeste 0 980.4 0.3 42
2018-05-03 21:00:00 20.4 9 Noroeste 23 Noroeste 0 980.1 -0.3 34
2018-05-03 20:00:00 21.3 10 Noroeste 30 Noroeste 0 980.1 -0.8 32
2018-05-03 19:00:00 21.7 12 Noroeste 28 Oeste 0 980.1 -1.7 34
2018-05-03 18:00:00 22.5 9 Noroeste 24 Noroeste 0 980.4 -1.7 35
2018-05-03 17:00:00 22.3 4 Oeste 18 Noroeste 0 980.9 -2.1 39
2018-05-03 16:00:00 21 8 Oeste 26 Oeste 0 981.8 -1.9 40
2018-05-03 15:00:00 22.3 5 Sudoeste 18 Oeste 0 982.1 -1.9 35
2018-05-03 14:00:00 20.6 7 Oeste 16 Oeste 0 983 -1.2 46
2018-05-03 13:00:00 18 6 Oeste 15 Sudoeste 0 983.7 -0.4 56
2018-05-03 12:00:00 16.8 4 Noroeste 13 Noroeste 0 984 -0.3 61
2018-05-03 11:00:00 15.4 6 Sudoeste 15 Sudoeste 0 984.2 0 65
2018-05-03 10:00:00 13 8 Sudoeste 22 Sudoeste 0 984.1 0.2 79
2018-05-03 09:00:00 10.4 10 Sudoeste 19 Sudoeste 0 984.3 0.3 93
2018-05-03 08:00:00 8.9 7 Sudoeste 15 Sudoeste 0 984.2 0 94
2018-05-03 07:00:00 9 6 Sudoeste 15 Sudoeste 0 983.9 -0.9 92
2018-05-03 06:00:00 9.3 9 Sudoeste 15 Sudoeste 0 984 -1.2 91
2018-05-03 05:00:00 9.5 7 Sudoeste 14 Sudoeste 0 984.2 -1.3 90
2018-05-03 04:00:00 9.7 8 Sudoeste 12 Sudoeste 0 984.8 -0.8 87
2018-05-03 03:00:00 10.3 8 Sudoeste 12 Sudoeste 0 985.2 -0.3 84
2018-05-03 02:00:00 10.8 6 Sudoeste 13 Sudoeste 0 985.5 0.1 80
2018-05-03 01:00:00 11.3 7 Sudoeste 11 Sudoeste 0 985.6 0.9 76
2018-05-03 00:00:00 12.2 5 Sudoeste 8 Sudoeste 0 985.5 1.2 72
2018-05-02 23:00:00 13.3 5 Oeste 12 Oeste 0 985.4 1.2 66
2018-05-02 22:00:00 14.5 5 Oeste 19 Noroeste 0 984.7 0.6 57
2018-05-02 21:00:00 16.1 9 Oeste 20 Noroeste 0 984.3 0.2 48
2018-05-02 20:00:00 18.8 7 Oeste 23 Oeste 0 984.2 -0.1 33
2018-05-02 19:00:00 19.8 11 Oeste 24 Oeste 0 984.1 -0.7 28
2018-05-02 18:00:00 19.8 9 Sudoeste 27 Sudoeste 0 984.1 -0.9 31
2018-05-02 17:00:00 18.2 8 Oeste 27 Oeste 0 984.3 -1 30
2018-05-02 16:00:00 18.4 11 Oeste 27 Noroeste 0 984.8 -0.9 28
2018-05-02 15:00:00 17.4 9 Oeste 21 Noroeste 0 985 -1 25
2018-05-02 14:00:00 15.8 8 Oeste 21 Oeste 0 985.3 -0.5 27
2018-05-02 13:00:00 15.1 9 Oeste 23 Sudoeste 0 985.7 0 38
2018-05-02 12:00:00 13.6 8 Sudoeste 19 Sudoeste 0 986 0.7 45
2018-05-02 11:00:00 11.5 10 Oeste 20 Sudoeste 0 985.8 1.1 59
2018-05-02 10:00:00 9.3 10 Sudoeste 21 Oeste 0 985.7 1.2 72
2018-05-02 09:00:00 8.4 10 Oeste 19 Oeste 0 985.3 0.8 74
2018-05-02 08:00:00 6.7 5 Sudoeste 14 Sudoeste 0 984.7 0.2 82
2018-05-02 07:00:00 7 6 Sudoeste 14 Sudoeste 0 984.5 0 80
2018-05-02 06:00:00 7.3 5 Sudoeste 9 Oeste 0 984.5 -0.2 77
2018-05-02 05:00:00 7.9 4 Sur 14 Sudoeste 0 984.5 0.1 75
2018-05-02 04:00:00 8.4 9 Sudoeste 19 Sudoeste 0 984.5 0.5 74
2018-05-02 03:00:00 9 7 Sudoeste 19 Sudoeste 0 984.7 0.7 76
2018-05-02 02:00:00 9.6 8 Sudoeste 17 Sudoeste 0 984.4 0.8 75
2018-05-02 01:00:00 10.5 6 Sudoeste 15 Sudoeste 0 984 0.9 68
2018-05-02 00:00:00 10.8 7 Sudoeste 12 Sur 0 984 1 67
2018-05-01 23:00:00 11.4 9 Sudeste 11 Sudeste 0 983.6 0.9 66
2018-05-01 22:00:00 14 4 Sur 6 Sudeste 0 983.1 0.3 52
2018-05-01 21:00:00 16.1 2 Noroeste 9 Noroeste 0 983 0 41
2018-05-01 20:00:00 17.5 3 Nordeste 13 Este 0 982.7 -0.4 34
2018-05-01 19:00:00 17.3 4 Nordeste 15 Nordeste 0 982.8 -0.7 31
2018-05-01 18:00:00 15.8 13 Norte 37 Norte 0 983 -0.7 33
2018-05-01 17:00:00 16.6 8 Noroeste 22 Noroeste 0 983.1 -0.7 42
2018-05-01 16:00:00 16.7 5 Este 15 Este 0 983.5 -0.3 45
2018-05-01 15:00:00 14.8 5 Este 19 Este 0 983.7 -0.4 46
2018-05-01 14:00:00 10.7 6 Este 40 Nordeste 0.4 983.8 -0.1 59
2018-05-01 13:00:00 14.9 5 Oeste 15 Noroeste 0 983.8 0.2 56
2018-05-01 12:00:00 13.2 6 Sudoeste 15 Oeste 0 984.1 0.8 66
2018-05-01 11:00:00 12.3 7 Oeste 17 Oeste 0 983.9 0.8 70
2018-05-01 10:00:00 10.4 6 Oeste 17 Oeste 0 983.6 0.8 85
2018-05-01 09:00:00 8.8 5 Sudoeste 15 Sudoeste 0 983.3 0.4 93
2018-05-01 08:00:00 8.2 5 Sudoeste 10 Oeste 0 983.1 0.1 93
2018-05-01 07:00:00 8.2 5 Sudoeste 10 Sudoeste 0 982.8 -0.5 89
2018-05-01 06:00:00 9.1 5 Oeste 11 Sudoeste 0 982.9 -0.7 89
2018-05-01 05:00:00 9.1 5 Sudoeste 16 Sudoeste 0 983 -0.9 87
2018-05-01 04:00:00 9.6 6 Oeste 14 Oeste 0 983.3 -0.7 84
2018-05-01 03:00:00 10.4 5 Oeste 12 Oeste 0 983.6 -0.4 78
2018-05-01 02:00:00 11 5 Sudoeste 8 Sudoeste 0 983.9 0.1 74
2018-05-01 01:00:00 11.6 3 Sudoeste 8 Sur 0 984 0.9 73
2018-05-01 00:00:00 11.9 3 Oeste 10 Noroeste 0 984 1.4 64
2018-04-30 23:00:00 12.3 6 Noroeste 17 Noroeste 0 983.8 1.4 60
2018-04-30 22:00:00 12.8 3 Oeste 7 Noroeste 0 983.1 0.6 63
2018-04-30 21:00:00 14.5 5 Noroeste 16 Noroeste 0 982.6 0.2 49
2018-04-30 20:00:00 16 9 Noroeste 21 Noroeste 0 982.4 -0.4 41
2018-04-30 19:00:00 15 11 Noroeste 29 Noroeste 0 982.5 -0.8 41
2018-04-30 18:00:00 15.5 7 Norte 24 Noroeste 0 982.4 -1.5 45
2018-04-30 17:00:00 14.2 8 Noroeste 21 Noroeste 0 982.8 -1.3 53
2018-04-30 16:00:00 15.4 7 Oeste 25 Oeste 0 983.3 -1.2 45
2018-04-30 15:00:00 11.7 5 Noroeste 48 Noroeste 0.6 983.9 -0.7 73
2018-04-30 14:00:00 14.5 7 Oeste 25 Sudoeste 0 984.1 -0.4 52
2018-04-30 13:00:00 13.4 9 Oeste 21 Noroeste 0 984.5 0.2 58
2018-04-30 12:00:00 12.4 7 Oeste 16 Noroeste 0 984.6 0.5 62
2018-04-30 11:00:00 11.9 7 Sudoeste 18 Sudoeste 0 984.5 0.6 63
2018-04-30 10:00:00 10.3 7 Sudoeste 13 Sudoeste 0 984.3 0.7 72
2018-04-30 09:00:00 8.1 4 Sur 8 Sudoeste 0 984.1 0.4 84
2018-04-30 08:00:00 7.2 4 Sudoeste 11 Sudoeste 0 983.9 -0.2 88
2018-04-30 07:00:00 7 5 Sudoeste 12 Sudoeste 0 983.6 -0.4 87
2018-04-30 06:00:00 6.7 3 Sur 8 Sur 0 983.7 -0.7 88
2018-04-30 05:00:00 6.9 4 Sur 9 Sudoeste 0 984.1 -0.7 87
2018-04-30 04:00:00 7 5 Sudoeste 14 Oeste 0 984 -0.8 85
2018-04-30 03:00:00 7.4 5 Oeste 12 Oeste 0 984.4 -0.2 81
2018-04-30 02:00:00 7.4 6 Sudoeste 12 Sudoeste 0 984.8 0.3 81
2018-04-30 01:00:00 7.9 8 Sudoeste 12 Sudoeste 0 984.8 1.4 79
2018-04-30 00:00:00 9.1 4 Oeste 14 Oeste 0 984.6 1.8 70
2018-04-29 23:00:00 10.2 5 Oeste 21 Oeste 0 984.5 2.3 65
2018-04-29 22:00:00 11.3 7 Oeste 20 Oeste 0 983.4 1.5 59
2018-04-29 21:00:00 12.9 11 Oeste 35 Noroeste 0 982.8 0.8 51
2018-04-29 20:00:00 14.5 16 Oeste 44 Oeste 0 982.2 -0.5 44
2018-04-29 19:00:00 15 22 Oeste 50 Sudoeste 0 981.9 -0.8 48
2018-04-29 18:00:00 14.3 17 Sudoeste 56 Oeste 0 982 -0.6 54
2018-04-29 17:00:00 12.8 23 Oeste 61 Noroeste 0.2 982.7 0.4 65
2018-04-29 16:00:00 12.5 13 Oeste 52 Sudoeste 1.6 982.7 0.2 84
2018-04-29 15:00:00 14.3 14 Oeste 48 Noroeste 0 982.6 0.3 60
2018-04-29 14:00:00 14.2 19 Oeste 50 Noroeste 0 982.3 0.5 56
2018-04-29 13:00:00 13.6 16 Oeste 43 Oeste 0 982.5 1.2 60
2018-04-29 12:00:00 12.7 20 Oeste 51 Oeste 0 982.3 1.8 63
2018-04-29 11:00:00 11.2 16 Oeste 36 Oeste 0 981.8 2.3 70
2018-04-29 10:00:00 9.4 18 Oeste 40 Sudoeste 0 981.3 2.6 78
2018-04-29 09:00:00 8.5 13 Oeste 29 Sudoeste 0 980.5 2.2 85
2018-04-29 08:00:00 8.2 11 Oeste 26 Oeste 0 979.5 1.6 89
2018-04-29 07:00:00 7.9 12 Oeste 37 Sudoeste 0 978.7 1.1 87
2018-04-29 06:00:00 8.3 14 Sudoeste 40 Sudoeste 0 978.3 0.4 88
2018-04-29 05:00:00 8.5 16 Oeste 37 Oeste 0 977.9 -0.5 87
2018-04-29 04:00:00 8.5 15 Sudoeste 36 Sudoeste 0.2 977.6 -0.9 91
2018-04-29 03:00:00 8.7 14 Sudoeste 27 Sudoeste 0 977.9 -0.4 91
2018-04-29 02:00:00 8.3 10 Sudoeste 29 Sudoeste 4 978.4 0.6 90
2018-04-29 01:00:00 9.1 10 Oeste 23 Oeste 6.8 978.5 0.8 92
2018-04-29 00:00:00 10 8 Sudoeste 28 Oeste 1.4 978.3 1.4 88
2018-04-28 23:00:00 11 6 Sudoeste 22 Sudoeste 0.6 977.8 0.2 83
2018-04-28 22:00:00 11.3 8 Oeste 37 Sudoeste 0.6 977.7 -0.4 75
2018-04-28 21:00:00 14.9 4 Sudoeste 14 Sudoeste 0 976.9 -1.8 47
2018-04-28 20:00:00 15.7 8 Sudoeste 21 Oeste 0 977.6 -1.7 40
2018-04-28 19:00:00 16.2 7 Oeste 24 Sudoeste 0 978.1 -1.8 36
2018-04-28 18:00:00 16.6 10 Sudoeste 26 Sudoeste 0 978.7 -1.6 34
2018-04-28 17:00:00 16.9 15 Sudoeste 30 Oeste 0 979.3 -1.5 33
2018-04-28 16:00:00 16.2 13 Oeste 31 Sudoeste 0 979.9 -1.4 37
2018-04-28 15:00:00 15.8 15 Oeste 38 Oeste 0 980.3 -1.1 39
2018-04-28 14:00:00 15.7 15 Oeste 36 Oeste 0 980.8 -0.5 36
2018-04-28 13:00:00 14.4 14 Oeste 30 Sudoeste 0 981.3 0 44
2018-04-28 12:00:00 13.7 12 Sudoeste 25 Sudoeste 0 981.4 0.2 53
2018-04-28 11:00:00 12 11 Oeste 27 Sudoeste 0 981.3 0.2 62
2018-04-28 10:00:00 9.7 11 Oeste 28 Sudoeste 0 981.3 0.3 71
2018-04-28 09:00:00 9.3 12 Oeste 28 Sudoeste 0 981.2 0.4 74
2018-04-28 08:00:00 8.7 10 Sudoeste 18 Oeste 0 981.1 0.3 74
2018-04-28 07:00:00 9.6 12 Oeste 28 Sudoeste 0 981 0 71
2018-04-28 06:00:00 10.9 15 Sudoeste 33 Sudoeste 0 980.8 -0.6 70
2018-04-28 05:00:00 11.9 10 Oeste 21 Oeste 0 980.8 -0.8 74
2018-04-28 04:00:00 12.6 8 Oeste 22 Oeste 0 981 -0.9 75
2018-04-28 03:00:00 12.8 8 Oeste 21 Sudoeste 0 981.4 -0.6 74
2018-04-28 02:00:00 13.7 9 Oeste 18 Oeste 0 981.6 -0.2 75
2018-04-28 01:00:00 14.3 9 Oeste 18 Sudoeste 0 981.9 0.4 74
2018-04-28 00:00:00 15.7 9 Oeste 17 Oeste 0 982 1 70
2018-04-27 23:00:00 16.6 6 Oeste 16 Oeste 0 981.8 0.9 65
2018-04-27 22:00:00 17.8 8 Oeste 27 Oeste 0 981.5 0.3 58
2018-04-27 21:00:00 19.6 11 Oeste 32 Oeste 0 981 -0.2 52
2018-04-27 20:00:00 22.5 12 Oeste 33 Oeste 0 980.9 -0.8 41
2018-04-27 19:00:00 23.5 13 Oeste 32 Oeste 0 981.2 -1.1 33
2018-04-27 18:00:00 23.8 15 Oeste 36 Oeste 0 981.2 -1.5 28
2018-04-27 17:00:00 24.1 12 Oeste 35 Sudoeste 0 981.7 -1.5 30
2018-04-27 16:00:00 23.1 13 Oeste 32 Oeste 0 982.3 -1.5 31
2018-04-27 15:00:00 22.5 10 Oeste 26 Oeste 0 982.7 -1.5 37
2018-04-27 14:00:00 21.6 9 Oeste 23 Oeste 0 983.2 -1 42
2018-04-27 13:00:00 19.7 8 Sudoeste 19 Sudoeste 0 983.8 -0.3 47
2018-04-27 12:00:00 16.9 10 Sudoeste 21 Oeste 0 984.2 0.5 57
2018-04-27 11:00:00 15 10 Oeste 24 Sudoeste 0 984.2 0.9 66
2018-04-27 10:00:00 12.6 11 Oeste 27 Sudoeste 0 984.1 1.1 79
2018-04-27 09:00:00 10.7 15 Sudoeste 29 Sudoeste 0 983.7 0.9 89
2018-04-27 08:00:00 10.2 10 Sudoeste 25 Sudoeste 0 983.3 0.6 88
2018-04-27 07:00:00 11.2 12 Sudoeste 32 Sudoeste 0 983 0 83
2018-04-27 06:00:00 12.5 11 Oeste 23 Oeste 0 982.8 -0.7 80
2018-04-27 05:00:00 15 8 Oeste 26 Oeste 0 982.7 -0.9 76
2018-04-27 04:00:00 16.6 8 Oeste 24 Sudoeste 0 983 -0.5 69
2018-04-27 03:00:00 17.8 10 Sudoeste 28 Sudoeste 0 983.5 0.2 64
2018-04-27 02:00:00 18.6 14 Oeste 33 Oeste 0 983.6 0.5 66
2018-04-27 01:00:00 19.8 11 Sudoeste 23 Sudoeste 0 983.5 1 70
2018-04-27 00:00:00 20.1 5 Sudoeste 11 Sur 0 983.3 1.4 68
2018-04-26 23:00:00 21.6 5 Sur 11 Oeste 0 983.1 1.2 65
2018-04-26 22:00:00 23.5 6 Oeste 12 Oeste 0 982.5 0.3 53
2018-04-26 21:00:00 26.1 3 Noroeste 13 Noroeste 0 981.9 -0.5 40
2018-04-26 20:00:00 27.6 7 Noroeste 19 Noroeste 0 981.9 -0.9 32
2018-04-26 19:00:00 29.3 4 Sudoeste 13 Sur 0 982.2 -1.2 28
2018-04-26 18:00:00 28.9 4 Sur 18 Sudeste 0 982.4 -1.5 30
2018-04-26 17:00:00 28.3 6 Sudeste 14 Sudoeste 0 982.8 -1.5 32
2018-04-26 16:00:00 27.9 6 Sudeste 19 Sudeste 0 983.4 -1.3 34
2018-04-26 15:00:00 26.8 4 Sudoeste 17 Sudeste 0 983.9 -1 34
2018-04-26 14:00:00 25.4 5 Este 15 Nordeste 0 984.3 -0.4 40
2018-04-26 13:00:00 24.6 6 Este 19 Este 0 984.7 -0.1 40
2018-04-26 12:00:00 23 9 Este 20 Nordeste 0 984.9 0.5 45
2018-04-26 11:00:00 21.1 9 Este 18 Este 0 984.7 0.9 52
2018-04-26 10:00:00 18.9 5 Este 14 Este 0 984.8 1.5 56
2018-04-26 09:00:00 15 4 Norte 10 Noroeste 0 984.4 0.8 79
2018-04-26 08:00:00 14.6 3 Sur 16 Este 0 983.8 -0.1 73
2018-04-26 07:00:00 15.5 9 Este 20 Este 0 983.3 -0.8 71
2018-04-26 06:00:00 15.5 4 Este 12 Sudeste 0 983.6 -0.2 74
2018-04-26 05:00:00 15.3 6 Sur 13 Sur 0 983.9 -0.1 76
2018-04-26 04:00:00 16 2 Este 12 Sudoeste 0 984.1 0.2 74
2018-04-26 03:00:00 17.8 3 Nordeste 9 Nordeste 0 983.8 0.6 62
2018-04-26 02:00:00 18.2 4 Norte 15 Este 0 984 1.1 62
2018-04-26 01:00:00 19.4 6 Este 31 Este 0 983.9 2.1 52
2018-04-26 00:00:00 20 11 Sudeste 26 Este 0 983.2 2.1 51
2018-04-25 23:00:00 23.1 12 Este 26 Este 0 982.9 2 47
2018-04-25 22:00:00 24.3 2 Noroeste 14 Noroeste 0 981.8 0.8 49
2018-04-25 21:00:00 26.2 6 Noroeste 19 Noroeste 0 981.1 0 40
2018-04-25 20:00:00 28.4 9 Noroeste 24 Norte 0 980.9 -0.6 35
2018-04-25 19:00:00 29.1 10 Norte 25 Norte 0 981 -1.2 23
2018-04-25 18:00:00 29.3 12 Norte 23 Noroeste 0 981.1 -1.6 24
2018-04-25 17:00:00 29.7 10 Norte 23 Noroeste 0 981.5 -1.7 26
2018-04-25 16:00:00 28.6 6 Norte 18 Noroeste 0 982.2 -1.8 32
2018-04-25 15:00:00 27.4 5 Noroeste 13 Noroeste 0 982.7 -1.6 32
2018-04-25 14:00:00 25.7 5 Norte 13 Norte 0 983.2 -1.2 32
2018-04-25 13:00:00 25.3 4 Este 12 Sudeste 0 984 -0.5 34
2018-04-25 12:00:00 23.2 4 Este 12 Sudeste 0 984.3 0.3 41
2018-04-25 11:00:00 20.5 5 Sudeste 13 Sudeste 0 984.4 0.7 53
2018-04-25 10:00:00 16.6 3 Noroeste 6 Norte 0 984.5 1.6 65
2018-04-25 09:00:00 14.1 0 Calma 10 Sudeste 0 984 1.2 74
2018-04-25 08:00:00 13.7 5 Sudeste 14 Sudeste 0 983.7 1.2 75
2018-04-25 07:00:00 15 4 Este 12 Nordeste 0 982.9 0.9 69
2018-04-25 06:00:00 15.2 6 Este 12 Sudeste 0 982.8 0.4 67
2018-04-25 05:00:00 14.6 10 Sudeste 17 Sudeste 0 982.5 0 75
2018-04-25 04:00:00 15 0 Calma 10 Noroeste 0 982 -0.4 86
2018-04-25 03:00:00 15.7 3 Noroeste 9 Sudeste 0 982.4 0 80
2018-04-25 02:00:00 16.3 3 Sur 6 Sudeste 0 982.5 0.2 77
2018-04-25 01:00:00 16.9 3 Sudeste 6 Sur 0 982.4 0.8 74
2018-04-25 00:00:00 17.8 3 Sur 7 Sudoeste 0 982.4 1.3 73
2018-04-24 23:00:00 19.1 2 Sur 7 Sudoeste 0 982.3 1.3 68
2018-04-24 22:00:00 21 2 Sur 6 Oeste 0 981.6 0.4 62
2018-04-24 21:00:00 23.1 3 Noroeste 5 Oeste 0 981.1 -0.2 47
2018-04-24 20:00:00 24.9 0 Calma 12 Nordeste 0 981 -0.7 35
2018-04-24 19:00:00 25.1 5 Nordeste 18 Nordeste 0 981.2 -0.9 33
2018-04-24 18:00:00 25.3 8 Nordeste 23 Nordeste 0 981.3 -1 33
2018-04-24 17:00:00 24.9 6 Nordeste 13 Nordeste 0 981.7 -0.8 32
2018-04-24 16:00:00 24.3 5 Nordeste 14 Este 0 982.1 -0.7 35
2018-04-24 15:00:00 24.3 8 Este 20 Este 0 982.3 -0.7 34
2018-04-24 14:00:00 23.9 8 Nordeste 21 Nordeste 0 982.5 -0.2 35
2018-04-24 13:00:00 22 7 Nordeste 16 Nordeste 0 982.8 0.1 42
2018-04-24 12:00:00 20.2 6 Nordeste 21 Este 0 983 0.5 45
2018-04-24 11:00:00 19.4 6 Este 17 Nordeste 0 982.7 0.3 50
2018-04-24 10:00:00 17.8 6 Este 22 Sudeste 0 982.7 0.9 53
2018-04-24 09:00:00 17.4 9 Sudeste 24 Este 0 982.5 1 56
2018-04-24 08:00:00 17.5 8 Este 21 Este 0 982.4 1 52
2018-04-24 07:00:00 17.2 2 Este 11 Este 0 981.8 0.3 63
2018-04-24 06:00:00 17.3 7 Sudeste 21 Nordeste 0 981.5 -0.2 61
2018-04-24 05:00:00 18.6 8 Este 24 Este 0 981.4 -0.7 53
2018-04-24 04:00:00 18.7 11 Nordeste 21 Nordeste 0 981.5 -0.7 57
2018-04-24 03:00:00 18.6 5 Nordeste 12 Nordeste 0 981.7 -0.4 64
2018-04-24 02:00:00 18.3 5 Norte 17 Sudeste 0 982.1 0.1 68
2018-04-24 01:00:00 19.6 6 Este 14 Nordeste 0 982.2 1.2 64
2018-04-24 00:00:00 18.9 0 Calma 10 Sur 0 982.1 1.4 73
2018-04-23 23:00:00 20.2 3 Este 8 Nordeste 0 982 1.6 62
2018-04-23 22:00:00 21.6 5 Nordeste 10 Nordeste 0 981 0 55
2018-04-23 21:00:00 22.7 2 Norte 21 Nordeste 0 980.7 -0.2 49
2018-04-23 20:00:00 23.9 9 Nordeste 17 Nordeste 0 980.4 -1 47
2018-04-23 19:00:00 25.1 8 Este 23 Este 0 981 -0.9 39
2018-04-23 18:00:00 25.9 8 Este 32 Nordeste 0 980.9 -1.4 37
2018-04-23 17:00:00 25.6 13 Nordeste 31 Nordeste 0 981.4 -1.7 38
2018-04-23 16:00:00 23.9 13 Nordeste 31 Nordeste 0 981.9 -1.6 42
2018-04-23 15:00:00 23.4 12 Nordeste 36 Este 0 982.3 -1 51
2018-04-23 14:00:00 23.9 11 Este 37 Este 0 983.1 -0.2 51
2018-04-23 13:00:00 23 12 Este 32 Este 0 983.5 -0.3 53
2018-04-23 12:00:00 21.5 14 Este 34 Sudeste 0 983.3 -0.5 60
2018-04-23 11:00:00 19.6 11 Este 27 Este 0 983.3 -1 66
2018-04-23 10:00:00 16.8 12 Este 27 Nordeste 0 983.8 -0.6 79
2018-04-23 09:00:00 15.4 2 Sudeste 26 Sudoeste 0.4 983.8 -0.8 85
2018-04-23 08:00:00 14.8 14 Sudoeste 35 Sudoeste 0.6 984.3 0.3 86
2018-04-23 07:00:00 14.8 18 Sur 37 Sur 3 984.4 1.1 87
2018-04-23 06:00:00 15.8 13 Sur 35 Sur 1.2 984.6 1.6 85
2018-04-23 05:00:00 15.8 14 Sudeste 25 Sudeste 1.8 984 1.5 87
2018-04-23 04:00:00 17.1 12 Sudeste 32 Sudeste 0 983.3 0.8 74
2018-04-23 03:00:00 18.2 15 Sudeste 41 Sudeste 0 983 0.8 65
2018-04-23 02:00:00 18.4 2 Este 23 Sudeste 0 982.5 -0.3 74
2018-04-23 01:00:00 20.1 11 Sudoeste 32 Sudeste 0 982.5 1.5 56
2018-04-23 00:00:00 19.9 8 Este 32 Nordeste 0 982.2 1.5 64
2018-04-22 23:00:00 18.3 12 Sur 24 Sur 0 982.8 2.1 76
2018-04-22 22:00:00 20.1 4 Norte 8 Norte 0 981 0.5 63
2018-04-22 21:00:00 21.8 3 Norte 11 Nordeste 0 980.7 0.4 56
2018-04-22 20:00:00 23.2 4 Norte 13 Este 0 980.7 0.4 48
2018-04-22 19:00:00 24 4 Nordeste 14 Norte 0 980.5 -0.4 44
2018-04-22 18:00:00 23.4 5 Nordeste 13 Nordeste 0 980.3 -1.2 47
2018-04-22 17:00:00 22.4 5 Norte 17 Nordeste 0 980.3 -1.3 47
2018-04-22 16:00:00 22.2 8 Nordeste 18 Nordeste 0 980.9 -1.3 49
2018-04-22 15:00:00 21.8 7 Nordeste 21 Sudeste 0 981.5 1.4 51
2018-04-22 14:00:00 20.4 7 Nordeste 15 Nordeste 0 981.6 -1.4 57
2018-04-22 13:00:00 19.1 3 Norte 30 Nordeste 0 982.2 -0.4 61
2018-04-22 12:00:00 16.2 20 Nordeste 40 Nordeste 0 980.1 -1 75
2018-04-22 11:00:00 16.4 4 Sudoeste 15 Norte 0 983 1 80
2018-04-22 10:00:00 16.3 4 Este 24 Este 0 982.6 0.9 78
2018-04-22 09:00:00 14.7 10 Este 24 Este 0 981.1 -1 82
2018-04-22 08:00:00 13.9 6 Este 19 Este 0 982 -1.1 86
2018-04-22 07:00:00 13.9 8 Este 30 Nordeste 0.2 981.7 -2.2 87
2018-04-22 06:00:00 14.2 13 Nordeste 27 Nordeste 0.4 982.1 -2.1 86
2018-04-22 05:00:00 14.4 12 Nordeste 29 Nordeste 0.2 983.1 -2.4 81
2018-04-22 04:00:00 14.2 8 Nordeste 30 Nordeste 0 983.9 -1.2 83
2018-04-22 03:00:00 13.9 11 Norte 25 Norte 2 984.2 -3 89
2018-04-22 02:00:00 14.7 5 Norte 26 Nordeste 0.2 985.5 1.5 81
2018-04-22 01:00:00 14.2 8 Norte 32 Oeste 1.2 985.1 1.2 89
2018-04-22 00:00:00 15.2 19 Oeste 48 Sudoeste 3.6 987.2 4.7 89